Архив погоды в Нальчике

Метеограмма Нальчик
Воскресенье, 22 Июля
Время местн. Темп Ветер Видим Явления Облачность нижн/средн/верх Атм. давл. Влжн Точка росы ВНГО R Сост. почвы Tg s
Напр Скр Прв ур.ст ур.м изм
03:00 +22.1° штиль 0 - 10 км - облачно 722 758 +0.3 67% +15.6° - - - - -
00:00 +22.9° Ю-З 1 - 10 км - преимущественно облачно 721 757 +0.1 61% +15.1° - - - - -
Суббота, 21 Июля
Время местн. Темп Ветер Видим Явления Облачность нижн/средн/верх Атм. давл. Влжн Точка росы ВНГО R Сост. почвы Tg s
Напр Скр Прв ур.ст ур.м изм
21:00 +24.3° Ю-З 2 - 10 км - преимущественно облачно 721 757 +0.5 58% +15.6° 1.5 км - - - -
18:00 +26.6° В,Ю-В 1 - 10 км - преимущественно облачно 721 756 +0.1 53% +16.2° 1.5 км - - - -
15:00 +28.2° С,С-В 2 - 20 км - переменная облачность 721 756 -0.6 46% +15.6° 1.5 км - - - -
12:00 +26.2° С-В 2 - 10 км - переменная облачность 721 757 -0.5 54% +16.2° 1.5 км - - - -
09:00 +21.8° Ю-В 1 - 10 км облака развиваются {ливневые осадки} облачно с прояснениями 722 758 +0.5 71% +16.3° 1 км - - - -
06:00 +19.4° В,С-В 1 - 10 км слабый ливневый дождь облачно 721 758 +0.8 85% +16.9° 1.5 км - Влажная (без луж) - -
03:00 +20.7° Ю-З 1 - 10 км небо без изменений {гроза} облачно 721 757 +0.5 79% +16.9° 1 км - - - -
00:00 +21.2° С-З 2 - 10 км - облачно с прояснениями 720 756 +0.2 75% +16.5° 1.5 км - - - -
Пятница, 20 Июля
Время местн. Темп Ветер Видим Явления Облачность нижн/средн/верх Атм. давл. Влжн Точка росы ВНГО R Сост. почвы Tg s
Напр Скр Прв ур.ст ур.м изм
21:00 +23.2° Ю-З 1 - 10 км - преимущественно облачно 720 756 +1.1 73% +18° - - - - -
18:00 +25.7° З 1 - 20 км - преимущественно облачно 719 754 -0.3 55% +15.9° 1.5 км - - - -
15:00 +25.4° С 1 - 20 км небо без изменений {ливневые осадки} облачно с прояснениями 719 755 -0.2 49% +13.8° 1.5 км - - - -
12:00 +24.1° С 2 - 20 км - преимущественно облачно 719 755 -0.1 58% +15.2° 1 км - - - -
09:00 +22.9° С 3 - 20 км - облачно 719 755 0 63% +15.4° 1.5 км - - - -
06:00 +20° Ю-З 1 - 20 км - преимущественно облачно 719 756 -0.2 73% +15° 1.5 км - Сухая (без трещин) - -
03:00 +17.5° С 1 - 10 км - переменная облачность 720 756 +0.5 85% +14.9° - - - - -
00:00 +19.6° Ю-З 1 - 10 км - облачно с прояснениями 719 755 +0.1 82% +16.5° - - - - -
Четверг, 19 Июля
Время местн. Темп Ветер Видим Явления Облачность нижн/средн/верх Атм. давл. Влжн Точка росы ВНГО R Сост. почвы Tg s
Напр Скр Прв ур.ст ур.м изм
21:00 +20.3° С 2 - 10 км - переменная облачность 719 755 +1.9 75% +15.7° 1.5 км - - - -
18:00 +29.3° С-З 2 - 20 км - переменная облачность 717 752 +0.8 43% +15.3° 1.5 км - - - -
15:00 +28.2° С-В 1 - 20 км гроза {ливневые осадки} облачно 716 751 -0.7 48% +16.2° 1 км - - - -
12:00 +29.5° С,С-В 2 - 20 км - переменная облачность 716 751 -0.7 45% +16.2° 1.5 км - - - -
09:00 +25.5° С,С-В 1 - 20 км - незначительная облачность 717 753 +0.2 58% +16.7° - - - - -
06:00 +21.3° З,Ю-З 2 - 20 км - ясно 717 753 -0.5 66% +14.8° более 2.5 км - Влажная (без луж) - -
03:00 +19.2° З 1 - 10 км - ясно 717 754 +0.1 81% +15.9° более 2.5 км - - - -
00:00 +20.7° З 2 - 10 км - облачно с прояснениями 717 753 -0.5 80% +17.2° - - - - -